createdAt,value
2023-02-19T00:01:25.280Z,101847.44
2023-02-19T00:03:57.540Z,101848.47
2023-02-19T00:06:26.033Z,101844.22
2023-02-19T00:08:52.937Z,101847.84
2023-02-19T00:11:22.533Z,101849.69
2023-02-19T00:13:52.431Z,101855.97
2023-02-19T00:16:23.093Z,101852.31
2023-02-19T00:18:50.135Z,101855.97
2023-02-19T00:21:16.816Z,101857.59
2023-02-19T00:23:43.355Z,101854.34
2023-02-19T00:26:18.284Z,101862.25
2023-02-19T00:28:46.265Z,101859.63
2023-02-19T00:31:24.593Z,101866.50
2023-02-19T00:33:53.662Z,101867.31
2023-02-19T00:36:21.055Z,101870.97
2023-02-19T00:38:48.492Z,101864.91
2023-02-19T00:41:21.733Z,101868.53
2023-02-19T00:43:55.583Z,101869.34
2023-02-19T00:46:31.148Z,101863.28
2023-02-19T00:48:59.024Z,101872.19
2023-02-19T00:51:28.287Z,101863.50
2023-02-19T00:53:54.905Z,101870.59
2023-02-19T00:56:21.618Z,101870.59
2023-02-19T00:58:48.832Z,101869.78
2023-02-19T01:01:15.677Z,101860.84
2023-02-19T01:03:42.829Z,101874.22
2023-02-19T01:06:11.201Z,101875.84
2023-02-19T01:08:38.313Z,101876.06
2023-02-19T01:11:06.627Z,101874.22
2023-02-19T01:13:33.572Z,101886.38
2023-02-19T01:16:25.048Z,101882.72
2023-02-19T01:18:51.554Z,101895.31
2023-02-19T01:21:23.978Z,101893.47
2023-02-19T01:23:51.586Z,101904.22
2023-02-19T01:26:21.188Z,101889.47
2023-02-19T01:28:48.566Z,101897.38
2023-02-19T01:31:21.732Z,101898.38
2023-02-19T01:33:51.093Z,101901.81
2023-02-19T01:36:17.811Z,101906.50
2023-02-19T01:38:44.943Z,101901.44
2023-02-19T01:41:15.651Z,101905.91
2023-02-19T01:44:00.632Z,101906.91
2023-02-19T01:46:40.018Z,101904.50
2023-02-19T01:49:31.817Z,101897.59
2023-02-19T01:52:09.898Z,101899.03
2023-02-19T01:54:39.771Z,101909.78
2023-02-19T01:57:11.080Z,101907.34
2023-02-19T01:59:38.557Z,101907.56
2023-02-19T02:02:05.833Z,101906.75
2023-02-19T02:04:34.034Z,101903.50
2023-02-19T02:07:03.470Z,101895.00
2023-02-19T02:09:49.761Z,101904.75
2023-02-19T02:12:16.355Z,101909.19
2023-02-19T02:14:48.147Z,101912.84
2023-02-19T02:17:26.590Z,101910.22
2023-02-19T02:20:05.274Z,101906.97
2023-02-19T02:22:42.400Z,101906.38
2023-02-19T02:25:36.877Z,101918.53
2023-02-19T02:28:32.590Z,101912.44
2023-02-19T02:31:17.534Z,101916.09
2023-02-19T02:33:54.812Z,101911.03
2023-02-19T02:36:31.749Z,101908.59
2023-02-19T02:39:00.036Z,101913.06
2023-02-19T02:41:26.770Z,101921.78
2023-02-19T02:43:53.287Z,101924.59
2023-02-19T02:46:28.028Z,101922.78
2023-02-19T02:48:58.566Z,101923.00
2023-02-19T02:51:38.476Z,101922.41
2023-02-19T02:54:34.814Z,101925.88
2023-02-19T02:57:02.576Z,101929.50
2023-02-19T02:59:33.858Z,101925.06
2023-02-19T03:02:10.911Z,101924.25
2023-02-19T03:05:49.972Z,101932.94
2023-02-19T03:08:38.703Z,101929.50
2023-02-19T03:11:30.345Z,101927.88
2023-02-19T03:14:26.525Z,101936.81
2023-02-19T03:17:17.171Z,101946.13
2023-02-19T03:19:47.319Z,101941.06
2023-02-19T03:22:26.105Z,101937.59
2023-02-19T03:25:16.389Z,101937.59
2023-02-19T03:27:45.024Z,101941.06
2023-02-19T03:30:17.604Z,101942.88
2023-02-19T03:32:53.262Z,101939.03
2023-02-19T03:35:24.682Z,101960.09
2023-02-19T03:38:01.714Z,101958.06
2023-02-19T03:40:31.437Z,101948.56
2023-02-19T03:43:27.121Z,101957.25
2023-02-19T03:46:06.601Z,101962.13
2023-02-19T03:48:38.593Z,101964.75
2023-02-19T03:51:20.438Z,101958.69
2023-02-19T03:53:54.007Z,101970.00
2023-02-19T03:56:43.554Z,101972.84
2023-02-19T03:59:35.585Z,101965.78
2023-02-19T04:02:18.904Z,101986.22
2023-02-19T04:04:54.857Z,101989.06
2023-02-19T04:07:23.144Z,101984.00
2023-02-19T04:09:51.488Z,101992.91
2023-02-19T04:12:20.474Z,101999.19
2023-02-19T04:15:08.674Z,101998.38
2023-02-19T04:17:39.348Z,102005.44
2023-02-19T04:20:09.218Z,102003.81
2023-02-19T04:22:38.595Z,102005.44
2023-02-19T04:25:05.450Z,102010.91
2023-02-19T04:27:32.869Z,102014.97
2023-02-19T04:29:59.363Z,102009.69
2023-02-19T04:32:25.886Z,102014.16
2023-02-19T04:34:54.214Z,102020.44
2023-02-19T04:37:20.945Z,102028.31
2023-02-19T04:39:47.415Z,102028.31
2023-02-19T04:42:13.869Z,102026.91
2023-02-19T04:44:40.385Z,102046.13
2023-02-19T04:47:06.918Z,102040.88
2023-02-19T04:49:33.394Z,102047.75
2023-02-19T04:51:59.921Z,102053.81
2023-02-19T04:54:26.572Z,102057.28
2023-02-19T04:56:53.216Z,102065.97
2023-02-19T04:59:19.754Z,102069.63
2023-02-19T05:01:46.506Z,102068.81
2023-02-19T05:04:13.045Z,102075.88
2023-02-19T05:06:39.564Z,102067.19
2023-02-19T05:09:06.123Z,102076.69
2023-02-19T05:11:32.628Z,102069.00
2023-02-19T05:13:59.086Z,102077.09
2023-02-19T05:16:25.893Z,102085.59
2023-02-19T05:18:52.433Z,102077.72
2023-02-19T05:21:19.083Z,102082.97
2023-02-19T05:23:45.716Z,102087.44
2023-02-19T05:26:17.952Z,102082.38
2023-02-19T05:28:45.717Z,102095.53
2023-02-19T05:31:14.053Z,102110.28
2023-02-19T05:33:42.974Z,102100.78
2023-02-19T05:36:11.853Z,102104.44
2023-02-19T05:38:39.419Z,102106.44
2023-02-19T05:41:15.828Z,102095.91
2023-02-19T05:43:44.736Z,102097.16
2023-02-19T05:46:13.824Z,102105.84
2023-02-19T05:48:40.503Z,102091.28
2023-02-19T05:51:11.335Z,102098.97
2023-02-19T05:53:38.466Z,102095.53
2023-02-19T05:56:05.811Z,102096.34
2023-02-19T05:58:32.269Z,102099.19
2023-02-19T06:00:58.769Z,102116.78
2023-02-19T06:03:25.376Z,102115.78
2023-02-19T06:05:51.854Z,102117.78
2023-02-19T06:08:18.483Z,102116.97
2023-02-19T06:10:45.050Z,102113.75
2023-02-19T06:13:11.653Z,102121.03
2023-02-19T06:15:38.645Z,102133.38
2023-02-19T06:18:05.291Z,102141.25
2023-02-19T06:20:32.991Z,102141.44
2023-02-19T06:22:59.610Z,102148.53
2023-02-19T06:25:26.237Z,102149.34
2023-02-19T06:27:52.946Z,102157.25
2023-02-19T06:30:19.609Z,102159.88
2023-02-19T06:32:46.120Z,102171.97
2023-02-19T06:35:12.619Z,102168.75
2023-02-19T06:37:39.175Z,102163.88
2023-02-19T06:40:06.149Z,102172.78
2023-02-19T06:42:33.225Z,102175.59
2023-02-19T06:44:59.728Z,102175.78
2023-02-19T06:47:26.247Z,102174.16
2023-02-19T06:49:52.707Z,102173.34
2023-02-19T06:52:19.228Z,102176.38
2023-02-19T06:54:45.748Z,102189.72
2023-02-19T06:57:12.174Z,102186.09
2023-02-19T06:59:38.723Z,102188.09
2023-02-19T07:02:05.386Z,102195.19
2023-02-19T07:04:32.066Z,102202.06
2023-02-19T07:07:00.226Z,102208.31
2023-02-19T07:09:28.477Z,102221.28
2023-02-19T07:11:55.175Z,102222.09
2023-02-19T07:14:21.808Z,102226.53
2023-02-19T07:16:48.627Z,102226.53
2023-02-19T07:19:15.782Z,102224.91
2023-02-19T07:21:42.820Z,102228.56
2023-02-19T07:24:10.280Z,102253.84
2023-02-19T07:26:36.966Z,102243.72
2023-02-19T07:29:03.545Z,102247.34
2023-02-19T07:31:30.151Z,102253.41
2023-02-19T07:33:56.749Z,102258.28
2023-02-19T07:36:24.218Z,102256.47
2023-02-19T07:38:57.320Z,102269.44
2023-02-19T07:41:25.109Z,102272.69
2023-02-19T07:43:52.278Z,102270.47
2023-02-19T07:46:19.227Z,102258.56
2023-02-19T07:48:45.862Z,102262.19
2023-02-19T07:51:19.127Z,102270.72
2023-02-19T07:53:47.004Z,102284.88
2023-02-19T07:56:14.247Z,102281.41
2023-02-19T07:58:41.150Z,102287.31
2023-02-19T08:01:15.338Z,102286.09
2023-02-19T08:03:43.165Z,102292.19
2023-02-19T08:06:11.255Z,102288.72
2023-02-19T08:08:41.126Z,102302.69
2023-02-19T08:11:26.381Z,102298.25
2023-02-19T08:13:53.719Z,102305.13
2023-02-19T08:16:33.189Z,102307.19
2023-02-19T08:19:07.458Z,102309.25
2023-02-19T08:21:34.479Z,102315.75
2023-02-19T08:24:01.088Z,102326.25
2023-02-19T08:26:27.621Z,102323.22
2023-02-19T08:28:54.358Z,102330.53
2023-02-19T08:31:21.067Z,102340.44
2023-02-19T08:33:47.654Z,102347.91
2023-02-19T08:36:14.296Z,102337.56
2023-02-19T08:38:40.787Z,102343.25
2023-02-19T08:41:09.740Z,102350.13
2023-02-19T08:43:36.894Z,102347.31
2023-02-19T08:46:04.137Z,102347.38
2023-02-19T08:48:30.835Z,102359.13
2023-02-19T08:51:00.647Z,102357.78
2023-02-19T08:53:27.327Z,102357.97
2023-02-19T08:55:53.820Z,102356.75
2023-02-19T08:58:20.701Z,102352.31
2023-02-19T09:00:47.966Z,102354.75
2023-02-19T09:03:15.044Z,102361.25
2023-02-19T09:05:41.923Z,102357.63
2023-02-19T09:08:09.145Z,102354.19
2023-02-19T09:10:35.639Z,102342.72
2023-02-19T09:13:02.824Z,102354.06
2023-02-19T09:15:29.765Z,102357.50
2023-02-19T09:17:56.499Z,102374.94
2023-02-19T09:20:23.141Z,102383.25
2023-02-19T09:22:49.957Z,102373.91
2023-02-19T09:25:16.467Z,102379.41
2023-02-19T09:27:43.516Z,102387.69
2023-02-19T09:30:10.492Z,102388.09
2023-02-19T09:32:37.165Z,102395.03
2023-02-19T09:35:03.834Z,102411.03
2023-02-19T09:37:32.024Z,102423.97
2023-02-19T09:39:59.572Z,102417.81
2023-02-19T09:42:30.301Z,102425.34
2023-02-19T09:44:59.092Z,102422.28
2023-02-19T09:47:31.463Z,102437.22
2023-02-19T09:50:06.526Z,102447.13
2023-02-19T09:52:40.155Z,102441.88
2023-02-19T09:55:34.497Z,102457.28
2023-02-19T09:58:18.956Z,102456.28
2023-02-19T10:00:48.943Z,102456.47
2023-02-19T10:03:30.744Z,102462.16
2023-02-19T10:06:06.035Z,102467.66
2023-02-19T10:08:37.923Z,102474.94
2023-02-19T10:11:06.300Z,102487.25
2023-02-19T10:13:41.720Z,102497.09
2023-02-19T10:16:16.097Z,102506.19
2023-02-19T10:18:44.398Z,102502.06
2023-02-19T10:21:15.938Z,102520.41
2023-02-19T10:23:44.261Z,102516.06
2023-02-19T10:26:10.866Z,102519.78
2023-02-19T10:28:38.191Z,102519.09
2023-02-19T10:31:13.351Z,102527.19
2023-02-19T10:33:50.674Z,102536.38
2023-02-19T10:36:24.260Z,102542.63
2023-02-19T10:38:50.998Z,102549.00
2023-02-19T10:41:22.842Z,102541.91
2023-02-19T10:44:14.119Z,102542.63
2023-02-19T10:46:47.030Z,102545.84
2023-02-19T10:49:43.418Z,102541.41
2023-02-19T10:52:17.875Z,102544.84
2023-02-19T10:54:45.682Z,102553.41
2023-02-19T10:57:15.216Z,102552.06
2023-02-19T11:00:01.947Z,102548.00
2023-02-19T11:02:30.497Z,102547.25
2023-02-19T11:05:09.295Z,102529.19
2023-02-19T11:07:37.564Z,102526.69
2023-02-19T11:10:07.096Z,102527.00
2023-02-19T11:12:34.848Z,102538.06
2023-02-19T11:15:18.907Z,102538.81
2023-02-19T11:17:45.751Z,102548.69
2023-02-19T11:20:17.887Z,102548.16
2023-02-19T11:22:46.968Z,102556.28
2023-02-19T11:25:13.420Z,102559.03
2023-02-19T11:28:20.908Z,102553.63
2023-02-19T11:30:47.881Z,102556.44
2023-02-19T11:33:17.010Z,102549.81
2023-02-19T11:35:44.815Z,102542.38
2023-02-19T11:38:13.570Z,102554.69
2023-02-19T11:40:40.344Z,102561.59
2023-02-19T11:43:33.677Z,102567.41
2023-02-19T11:46:03.370Z,102569.91
2023-02-19T11:48:47.956Z,102566.28
2023-02-19T11:51:14.427Z,102564.28
2023-02-19T11:53:54.892Z,102566.59
2023-02-19T11:56:33.963Z,102556.63
2023-02-19T11:59:02.645Z,102554.91
2023-02-19T12:01:38.027Z,102561.63
2023-02-19T12:04:19.745Z,102558.16
2023-02-19T12:06:52.137Z,102561.63
2023-02-19T12:09:28.651Z,102560.69
2023-02-19T12:12:10.271Z,102562.13
2023-02-19T12:14:44.125Z,102575.22
2023-02-19T12:17:35.779Z,102582.25
2023-02-19T12:20:02.288Z,102569.13
2023-02-19T12:22:31.190Z,102575.47
2023-02-19T12:25:16.537Z,102582.16
2023-02-19T12:28:00.564Z,102577.06
2023-02-19T12:30:52.298Z,102573.34
2023-02-19T12:33:42.883Z,102572.19
2023-02-19T12:36:35.154Z,102577.44
2023-02-19T12:39:15.176Z,102585.03
2023-02-19T12:42:00.581Z,102595.97
2023-02-19T12:44:40.235Z,102587.56
2023-02-19T12:47:08.494Z,102587.56
2023-02-19T12:49:42.294Z,102587.22
2023-02-19T12:52:26.413Z,102609.03
2023-02-19T12:54:56.259Z,102610.81
2023-02-19T12:57:36.878Z,102616.75
2023-02-19T13:00:26.366Z,102619.38
2023-02-19T13:03:11.099Z,102624.28
2023-02-19T13:05:44.044Z,102634.50
2023-02-19T13:08:13.844Z,102618.75
2023-02-19T13:10:51.279Z,102631.88
2023-02-19T13:13:33.541Z,102636.94
2023-02-19T13:16:09.901Z,102646.16
2023-02-19T13:18:44.145Z,102648.78
2023-02-19T13:21:12.794Z,102657.13
2023-02-19T13:24:03.201Z,102651.53
2023-02-19T13:27:20.625Z,102666.44
2023-02-19T13:30:18.082Z,102685.25
2023-02-19T13:33:22.519Z,102673.88
2023-02-19T13:36:06.152Z,102670.94
2023-02-19T13:38:37.712Z,102668.13
2023-02-19T13:41:04.913Z,102674.84
2023-02-19T13:43:39.935Z,102675.31
2023-02-19T13:46:12.376Z,102673.00
2023-02-19T13:48:40.952Z,102693.47
2023-02-19T13:51:21.576Z,102685.59
2023-02-19T13:53:48.488Z,102691.75
2023-02-19T13:56:30.472Z,102685.28
2023-02-19T13:59:15.349Z,102682.91
2023-02-19T14:02:06.363Z,102684.00
2023-02-19T14:04:42.008Z,102688.72
2023-02-19T14:07:08.495Z,102686.91
2023-02-19T14:09:45.415Z,102688.88
2023-02-19T14:12:16.056Z,102686.38
2023-02-19T14:14:43.652Z,102697.03
2023-02-19T14:17:10.188Z,102692.97
2023-02-19T14:19:42.522Z,102684.44
2023-02-19T14:22:46.097Z,102683.56
2023-02-19T14:25:30.901Z,102677.91
2023-02-19T14:28:18.714Z,102680.97
2023-02-19T14:31:09.046Z,102672.09
2023-02-19T14:33:40.235Z,102675.56
2023-02-19T14:36:16.879Z,102666.03
2023-02-19T14:39:02.246Z,102663.97
2023-02-19T14:41:31.921Z,102651.91
2023-02-19T14:44:00.316Z,102652.44
2023-02-19T14:46:58.027Z,102642.69
2023-02-19T14:49:46.842Z,102637.31
2023-02-19T14:52:36.754Z,102641.03
2023-02-19T14:55:25.592Z,102643.84
2023-02-19T14:57:54.516Z,102644.47
2023-02-19T15:00:29.885Z,102637.13
2023-02-19T15:02:58.584Z,102628.44
2023-02-19T15:05:30.924Z,102625.38
2023-02-19T15:08:00.674Z,102636.34
2023-02-19T15:10:30.343Z,102626.69
2023-02-19T15:13:01.272Z,102627.97
2023-02-19T15:15:30.426Z,102633.94
2023-02-19T15:17:59.113Z,102644.47
2023-02-19T15:20:29.178Z,102661.50
2023-02-19T15:22:58.553Z,102666.31
2023-02-19T15:25:32.064Z,102662.22
2023-02-19T15:28:38.733Z,102685.00
2023-02-19T15:31:07.659Z,102686.16
2023-02-19T15:33:35.199Z,102692.78
2023-02-19T15:36:06.011Z,102687.97
2023-02-19T15:38:33.676Z,102693.94
2023-02-19T15:41:00.967Z,102707.13
2023-02-19T15:43:44.402Z,102697.63
2023-02-19T15:46:18.631Z,102699.69
2023-02-19T15:49:00.656Z,102697.38
2023-02-19T15:51:35.307Z,102702.03
2023-02-19T15:54:13.319Z,102690.19
2023-02-19T15:56:44.170Z,102686.06
2023-02-19T15:59:42.093Z,102684.06
2023-02-19T16:02:15.426Z,102699.81
2023-02-19T16:04:45.585Z,102711.38
2023-02-19T16:07:26.178Z,102715.34
2023-02-19T16:10:25.924Z,102731.06
2023-02-19T16:12:59.115Z,102727.16
2023-02-19T16:15:27.917Z,102741.91
2023-02-19T16:17:55.521Z,102748.34
2023-02-19T16:20:26.637Z,102738.00
2023-02-19T16:22:59.702Z,102743.16
2023-02-19T16:25:31.976Z,102740.06
2023-02-19T16:27:58.807Z,102742.69
2023-02-19T16:30:33.959Z,102743.31
2023-02-19T16:33:31.968Z,102746.94
2023-02-19T16:35:58.975Z,102749.72
2023-02-19T16:38:25.520Z,102745.66
2023-02-19T16:40:52.363Z,102744.34
2023-02-19T16:43:30.459Z,102747.16
2023-02-19T16:45:58.130Z,102747.50
2023-02-19T16:48:24.800Z,102751.09
2023-02-19T16:50:51.443Z,102757.34
2023-02-19T16:53:24.869Z,102763.56
2023-02-19T16:55:52.476Z,102763.56
2023-02-19T16:58:19.303Z,102760.94
2023-02-19T17:00:46.615Z,102767.00
2023-02-19T17:03:21.195Z,102750.97
2023-02-19T17:05:48.396Z,102750.16
2023-02-19T17:08:28.708Z,102737.19
2023-02-19T17:10:56.213Z,102746.06
2023-02-19T17:13:22.803Z,102745.41
2023-02-19T17:15:49.247Z,102747.22
2023-02-19T17:18:15.912Z,102745.75
2023-02-19T17:20:45.365Z,102752.00
2023-02-19T17:23:11.942Z,102753.00
2023-02-19T17:25:38.501Z,102758.25
2023-02-19T17:28:05.180Z,102759.41
2023-02-19T17:30:33.881Z,102765.63
2023-02-19T17:33:00.450Z,102775.31
2023-02-19T17:35:27.037Z,102774.81
2023-02-19T17:37:53.621Z,102774.16
2023-02-19T17:40:32.731Z,102780.41
2023-02-19T17:43:01.494Z,102781.38
2023-02-19T17:45:28.059Z,102786.63
2023-02-19T17:47:54.610Z,102786.81
2023-02-19T17:50:24.124Z,102794.03
2023-02-19T17:52:50.713Z,102800.25
2023-02-19T17:55:18.483Z,102807.47
2023-02-19T17:57:47.164Z,102799.94
2023-02-19T18:00:16.733Z,102796.66
2023-02-19T18:02:43.160Z,102797.63
2023-02-19T18:05:09.755Z,102796.81
2023-02-19T18:07:36.443Z,102795.03
2023-02-19T18:10:03.740Z,102797.63
2023-02-19T18:12:30.279Z,102783.72
2023-02-19T18:14:57.298Z,102773.41
2023-02-19T18:17:24.942Z,102770.13
2023-02-19T18:19:52.356Z,102781.44
2023-02-19T18:22:19.011Z,102777.16
2023-02-19T18:24:50.873Z,102762.59
2023-02-19T18:27:18.864Z,102767.38
2023-02-19T18:29:52.294Z,102765.91
2023-02-19T18:32:20.724Z,102767.41
2023-02-19T18:34:55.937Z,102772.31
2023-02-19T18:37:23.951Z,102767.72
2023-02-19T18:39:50.740Z,102774.47
2023-02-19T18:42:17.479Z,102783.63
2023-02-19T18:44:48.251Z,102772.16
2023-02-19T18:47:15.186Z,102776.41
2023-02-19T18:49:49.217Z,102776.75
2023-02-19T18:52:20.366Z,102778.53
2023-02-19T18:54:48.959Z,102777.41
2023-02-19T18:57:16.036Z,102779.03
2023-02-19T18:59:43.406Z,102779.88
2023-02-19T19:02:10.446Z,102777.06
2023-02-19T19:04:38.773Z,102769.88
2023-02-19T19:07:06.477Z,102769.69
2023-02-19T19:09:33.755Z,102774.41
2023-02-19T19:12:01.266Z,102775.91
2023-02-19T19:14:28.118Z,102778.34
2023-02-19T19:16:54.767Z,102783.22
2023-02-19T19:19:21.669Z,102778.31
2023-02-19T19:21:55.309Z,102784.69
2023-02-19T19:24:24.120Z,102785.81
2023-02-19T19:26:51.612Z,102795.94
2023-02-19T19:29:20.986Z,102789.53
2023-02-19T19:31:48.490Z,102802.16
2023-02-19T19:34:15.964Z,102796.41
2023-02-19T19:36:42.455Z,102800.31
2023-02-19T19:39:09.249Z,102793.59
2023-02-19T19:41:35.890Z,102795.41
2023-02-19T19:44:05.095Z,102793.25
2023-02-19T19:46:32.824Z,102793.72
2023-02-19T19:48:59.354Z,102795.81
2023-02-19T19:51:35.726Z,102801.38
2023-02-19T19:54:04.158Z,102802.66
2023-02-19T19:56:31.458Z,102791.69
2023-02-19T19:58:58.037Z,102782.69
2023-02-19T20:01:24.599Z,102783.66
2023-02-19T20:03:51.232Z,102783.16
2023-02-19T20:06:29.476Z,102784.44
2023-02-19T20:08:56.432Z,102778.53
2023-02-19T20:11:23.702Z,102781.31
2023-02-19T20:13:50.507Z,102783.56
2023-02-19T20:16:17.112Z,102787.16
2023-02-19T20:18:43.581Z,102783.22
2023-02-19T20:21:11.231Z,102774.69
2023-02-19T20:23:39.772Z,102777.47
2023-02-19T20:26:06.960Z,102764.41
2023-02-19T20:28:33.676Z,102769.16
2023-02-19T20:31:00.585Z,102769.31
2023-02-19T20:33:27.282Z,102781.84
2023-02-19T20:35:53.825Z,102781.19
2023-02-19T20:38:20.289Z,102786.03
2023-02-19T20:40:46.950Z,102789.94
2023-02-19T20:43:13.616Z,102783.22
2023-02-19T20:45:41.081Z,102783.38
2023-02-19T20:48:07.622Z,102783.66
2023-02-19T20:50:34.239Z,102782.84
2023-02-19T20:53:01.253Z,102782.31
2023-02-19T20:55:28.947Z,102773.00
2023-02-19T20:57:55.544Z,102776.75
2023-02-19T21:00:22.402Z,102776.06
2023-02-19T21:02:48.988Z,102770.34
2023-02-19T21:05:17.335Z,102762.69
2023-02-19T21:07:44.066Z,102761.72
2023-02-19T21:10:10.697Z,102747.84
2023-02-19T21:12:37.591Z,102735.44
2023-02-19T21:15:05.101Z,102735.44
2023-02-19T21:17:31.951Z,102734.63
2023-02-19T21:19:58.464Z,102739.19
2023-02-19T21:22:24.980Z,102745.06
2023-02-19T21:24:53.079Z,102736.25
2023-02-19T21:27:20.582Z,102739.03
2023-02-19T21:29:47.518Z,102743.72
2023-02-19T21:32:14.249Z,102736.56
2023-02-19T21:34:42.079Z,102734.63
2023-02-19T21:37:08.724Z,102742.31
2023-02-19T21:39:35.333Z,102750.78
2023-02-19T21:42:02.534Z,102746.38
2023-02-19T21:44:29.065Z,102755.19
2023-02-19T21:46:56.070Z,102760.59
2023-02-19T21:49:22.752Z,102747.00
2023-02-19T21:51:50.227Z,102742.59
2023-02-19T21:54:21.841Z,102752.75
2023-02-19T21:56:48.823Z,102752.75
2023-02-19T21:59:15.556Z,102759.63
2023-02-19T22:01:43.274Z,102756.53
2023-02-19T22:04:14.142Z,102745.47
2023-02-19T22:06:40.880Z,102741.22
2023-02-19T22:09:08.798Z,102738.44
2023-02-19T22:11:35.315Z,102739.44
2023-02-19T22:14:02.359Z,102742.84
2023-02-19T22:16:28.971Z,102746.13
2023-02-19T22:18:57.466Z,102749.41
2023-02-19T22:21:27.016Z,102744.19
2023-02-19T22:23:54.858Z,102741.28
2023-02-19T22:26:22.499Z,102728.88
2023-02-19T22:28:49.471Z,102733.13
2023-02-19T22:31:18.219Z,102728.56
2023-02-19T22:33:45.080Z,102723.34
2023-02-19T22:36:23.395Z,102713.72
2023-02-19T22:38:50.421Z,102710.13
2023-02-19T22:41:18.219Z,102721.41
2023-02-19T22:43:45.257Z,102716.19
2023-02-19T22:46:18.043Z,102714.53
2023-02-19T22:48:44.837Z,102713.88
2023-02-19T22:51:13.196Z,102718.13
2023-02-19T22:53:51.141Z,102714.25
2023-02-19T22:56:18.936Z,102706.09
2023-02-19T22:58:45.673Z,102703.16
2023-02-19T23:01:14.817Z,102707.22
2023-02-19T23:03:49.661Z,102698.41
2023-02-19T23:06:20.743Z,102695.19
2023-02-19T23:08:47.625Z,102689.66
2023-02-19T23:11:21.807Z,102689.19
2023-02-19T23:13:48.715Z,102681.84
2023-02-19T23:16:15.762Z,102677.13
2023-02-19T23:18:42.453Z,102677.78
2023-02-19T23:21:09.159Z,102677.47
2023-02-19T23:23:35.740Z,102679.13
2023-02-19T23:26:03.822Z,102682.41
2023-02-19T23:28:30.444Z,102676.84
2023-02-19T23:30:57.015Z,102680.91
2023-02-19T23:33:23.644Z,102680.75
2023-02-19T23:35:50.205Z,102690.75
2023-02-19T23:38:16.989Z,102690.75
2023-02-19T23:40:43.508Z,102698.44
2023-02-19T23:43:09.987Z,102700.72
2023-02-19T23:45:36.623Z,102691.91
2023-02-19T23:48:03.688Z,102692.56
2023-02-19T23:50:30.191Z,102683.59
2023-02-19T23:52:59.159Z,102675.75
2023-02-19T23:55:26.550Z,102667.75
2023-02-19T23:57:53.536Z,102655.31
